Time;durP1;ratioP1;P1;durP2;ratioP2;P2;SDS_P1;SDS_P2;PMS_P1;PMS_P2;Temp;Humidity;BMP_temperature;BMP_pressure;BME280_temperature;BME280_humidity;BME280_pressure;Samples;Min_cycle;Max_cycle;Signal;HPM_P1;HPM_P2
2022/10/02 00:01:28;;;;;;;24.93;4.50;;;11.60;99.90;;;10.67;100.00;97644.78;5070242;28;20761;-73
2022/10/02 00:03:56;;;;;;;17.75;4.40;;;11.60;99.90;;;10.67;100.00;97655.38;5069830;28;20486;-73
2022/10/02 00:06:24;;;;;;;15.68;4.10;;;11.60;99.90;;;10.68;100.00;97641.06;5070237;28;20439;-73
2022/10/02 00:08:58;;;;;;;12.57;3.45;;;11.60;99.90;;;10.72;100.00;97647.50;5070613;28;20431;-73
2022/10/02 00:11:34;;;;;;;17.92;4.18;;;11.60;99.90;;;10.74;100.00;97651.50;5070572;28;20445;-73
2022/10/02 00:14:03;;;;;;;12.43;3.50;;;11.70;99.90;;;10.78;100.00;97659.75;5070099;28;20395;-73
2022/10/02 00:16:35;;;;;;;16.27;3.70;;;11.70;99.90;;;10.83;100.00;97663.25;5070373;28;20913;-73
2022/10/02 00:19:02;;;;;;;20.10;3.93;;;11.70;99.90;;;10.83;100.00;97665.91;5070451;28;20420;-72
2022/10/02 00:21:46;;;;;;;18.58;3.63;;;11.80;99.90;;;10.81;100.00;97651.31;5070313;28;20442;-73
2022/10/02 00:24:17;;;;;;;21.92;4.30;;;11.70;99.90;;;10.77;100.00;97629.03;5069791;28;20475;-73
2022/10/02 00:26:55;;;;;;;20.30;4.20;;;11.70;99.90;;;10.74;100.00;97643.56;5070377;28;20434;-72
2022/10/02 00:29:35;;;;;;;24.42;4.05;;;11.70;99.90;;;10.73;100.00;97638.50;5069830;28;20408;-72
2022/10/02 00:32:19;;;;;;;20.27;4.32;;;11.70;99.90;;;10.72;100.00;97650.94;5069929;28;20400;-73
2022/10/02 00:35:18;;;;;;;18.13;4.10;;;11.60;99.90;;;10.72;100.00;97650.16;5069537;28;20461;-71
2022/10/02 00:37:54;;;;;;;12.83;3.50;;;11.70;99.90;;;10.85;100.00;97663.03;5070186;28;20396;-73
2022/10/02 00:40:48;;;;;;;16.88;3.83;;;11.70;99.90;;;10.83;100.00;97663.25;5070236;28;20423;-73
2022/10/02 00:43:27;;;;;;;17.42;3.70;;;11.80;99.90;;;10.81;100.00;97664.56;5069736;28;20403;-73
2022/10/02 00:46:29;;;;;;;11.50;3.40;;;11.70;99.90;;;10.84;100.00;97654.28;5070011;28;20395;-73
2022/10/02 00:49:23;;;;;;;11.02;3.55;;;11.80;99.90;;;10.82;100.00;97650.28;5070159;28;20844;-73
2022/10/02 00:52:08;;;;;;;19.25;3.90;;;11.70;99.90;;;10.83;100.00;97651.88;5070137;28;20507;-71
2022/10/02 00:55:34;;;;;;;12.02;3.38;;;11.80;99.90;;;10.88;100.00;97656.44;5069521;28;20426;-74
2022/10/02 00:58:18;;;;;;;17.20;3.67;;;11.80;99.90;;;10.90;100.00;97660.41;5045156;28;20843;-73
2022/10/02 01:00:59;;;;;;;17.55;4.20;;;11.80;99.90;;;10.85;100.00;97666.47;5070055;28;20428;-73
2022/10/02 01:03:30;;;;;;;10.43;3.33;;;11.80;99.90;;;10.86;100.00;97668.06;5069499;28;20402;-73
2022/10/02 01:05:56;;;;;;;12.95;3.47;;;11.80;99.90;;;10.83;100.00;97668.56;5069776;28;20507;-73
2022/10/02 01:08:22;;;;;;;17.52;3.97;;;11.80;99.90;;;10.80;100.00;97678.84;5069976;28;20916;-73
2022/10/02 01:10:48;;;;;;;27.10;4.33;;;11.70;99.90;;;10.79;100.00;97682.53;5070978;28;20453;-73
2022/10/02 01:13:14;;;;;;;19.17;3.60;;;11.70;99.90;;;10.78;100.00;97673.78;5073262;28;20888;-74
2022/10/02 01:15:49;;;;;;;18.20;3.95;;;11.70;99.90;;;10.79;100.00;97682.53;5072489;28;20475;-73
2022/10/02 01:18:15;;;;;;;12.18;3.58;;;11.70;99.90;;;10.81;100.00;97680.47;5073629;28;20409;-73
2022/10/02 01:20:45;;;;;;;13.15;3.22;;;11.70;99.90;;;10.82;100.00;97676.75;5072089;28;20408;-73
2022/10/02 01:23:22;;;;;;;18.70;4.32;;;11.70;99.90;;;10.80;100.00;97666.41;5072864;28;20804;-73
2022/10/02 01:25:50;;;;;;;14.43;3.88;;;11.70;99.90;;;10.85;100.00;97673.59;5073420;28;20384;-73
2022/10/02 01:28:16;;;;;;;18.73;3.90;;;11.80;99.90;;;10.84;100.00;97670.16;5073542;28;20868;-73
2022/10/02 01:30:47;;;;;;;15.65;4.05;;;11.80;99.90;;;10.88;100.00;97673.13;5073474;28;20404;-73
2022/10/02 01:33:15;;;;;;;19.83;3.88;;;11.80;99.90;;;10.85;100.00;97661.16;5072971;28;20436;-73
2022/10/02 01:35:42;;;;;;;16.23;3.72;;;11.80;99.90;;;10.84;100.00;97667.50;5073273;28;20835;-73
2022/10/02 01:38:12;;;;;;;18.90;3.72;;;11.80;99.90;;;10.94;100.00;97663.41;5073337;28;20789;-73
2022/10/02 01:40:40;;;;;;;10.00;3.38;;;11.80;99.90;;;10.97;100.00;97673.50;5073364;28;20499;-73
2022/10/02 01:43:13;;;;;;;12.93;3.63;;;11.80;99.90;;;10.92;100.00;97663.63;5071559;28;20407;-74
2022/10/02 01:45:54;;;;;;;16.60;3.55;;;11.80;99.90;;;10.92;100.00;97660.19;5073228;28;20513;-73
2022/10/02 01:48:38;;;;;;;12.63;3.40;;;11.80;99.90;;;10.92;100.00;97668.94;5072592;28;20400;-73
2022/10/02 01:51:27;;;;;;;10.68;3.20;;;11.80;99.90;;;10.92;100.00;97668.94;5073157;28;20948;-73
2022/10/02 01:54:07;;;;;;;8.55;3.17;;;11.80;99.90;;;11.06;100.00;97680.75;5072565;28;20400;-73
2022/10/02 01:56:46;;;;;;;14.18;3.80;;;11.90;99.90;;;11.00;100.00;97684.41;5073031;28;21082;-73
2022/10/02 01:59:27;;;;;;;10.48;3.20;;;11.90;99.90;;;10.99;100.00;97690.75;5073017;28;20400;-73
2022/10/02 02:02:08;;;;;;;16.27;3.28;;;11.90;99.90;;;10.96;100.00;97683.31;5073030;28;20489;-73
2022/10/02 02:04:45;;;;;;;14.63;3.17;;;11.90;99.90;;;10.97;100.00;97676.97;5072008;28;20884;-73
2022/10/02 02:07:19;;;;;;;8.38;3.15;;;11.90;99.90;;;10.99;100.00;97668.75;5072938;28;20406;-73
2022/10/02 02:09:57;;;;;;;7.55;2.88;;;11.90;99.90;;;10.99;100.00;97674.84;5072930;28;20446;-74
2022/10/02 02:12:30;;;;;;;9.30;2.70;;;11.90;99.90;;;11.01;100.00;97679.91;5072697;28;20445;-73
2022/10/02 02:15:03;;;;;;;11.02;2.95;;;11.90;99.90;;;10.97;100.00;97678.81;5072248;28;20449;-73
2022/10/02 02:17:37;;;;;;;9.77;3.13;;;11.90;99.90;;;11.00;100.00;97688.91;5072609;28;20415;-73
2022/10/02 02:20:08;;;;;;;7.57;3.00;;;11.90;99.90;;;10.99;100.00;97688.09;5072735;28;20404;-73
2022/10/02 02:22:41;;;;;;;10.02;3.00;;;11.90;99.90;;;10.98;100.00;97690.97;5071728;28;20431;-73
2022/10/02 02:25:13;;;;;;;15.05;3.55;;;11.90;99.90;;;10.96;100.00;97687.78;5072330;28;20452;-73
2022/10/02 02:27:44;;;;;;;14.93;3.30;;;11.90;99.90;;;10.97;100.00;97684.09;5072594;28;20715;-73
2022/10/02 02:30:13;;;;;;;8.93;2.88;;;11.90;99.90;;;10.97;100.00;97687.56;5072528;28;20406;-73
2022/10/02 02:32:45;;;;;;;7.32;2.70;;;11.90;99.90;;;10.98;100.00;97690.97;5072376;28;20553;-73
2022/10/02 02:35:18;;;;;;;12.07;3.20;;;11.90;99.90;;;10.99;100.00;97695.22;5072203;28;20498;-73
2022/10/02 02:37:48;;;;;;;8.93;2.95;;;11.90;99.90;;;10.98;100.00;97683.84;5072488;28;20400;-73
2022/10/02 02:40:19;;;;;;;11.38;3.05;;;11.90;99.90;;;10.99;100.00;97677.50;5072239;28;20487;-73
2022/10/02 02:42:52;;;;;;;10.30;3.05;;;11.90;99.90;;;10.99;100.00;97674.03;5071804;28;20404;-73
2022/10/02 02:45:22;;;;;;;10.10;2.70;;;11.90;99.90;;;10.99;100.00;97672.19;5070764;28;20788;-73
2022/10/02 02:47:52;;;;;;;11.25;3.30;;;11.90;99.90;;;10.99;100.00;97674.03;5072215;28;20487;-73
2022/10/02 02:50:24;;;;;;;8.80;2.95;;;11.90;99.90;;;10.99;100.00;97680.16;5072109;28;20399;-73
2022/10/02 02:52:57;;;;;;;14.50;3.65;;;11.90;99.90;;;10.98;100.00;97678.53;5071468;28;20398;-73
2022/10/02 02:55:29;;;;;;;15.02;3.47;;;11.90;99.90;;;10.98;100.00;97675.09;5071878;28;20904;-73
2022/10/02 02:58:04;;;;;;;9.10;3.38;;;11.90;99.90;;;10.99;100.00;97676.69;5071917;28;20445;-73
2022/10/02 03:00:32;;;;;;;11.40;3.20;;;11.90;99.90;;;10.99;100.00;97682.00;5071881;28;20919;-73
2022/10/02 03:02:58;;;;;;;15.17;3.17;;;11.90;99.90;;;10.99;100.00;97693.38;5071319;28;20408;-73
2022/10/02 03:05:24;;;;;;;9.38;3.20;;;11.90;99.90;;;11.00;100.00;97695.00;5091517;22;20563;-76
2022/10/02 03:07:54;;;;;;;12.48;3.55;;;11.90;99.90;;;10.98;100.00;97697.06;5090789;28;20405;-76
2022/10/02 03:10:34;;;;;;;12.63;3.22;;;11.90;99.90;;;11.01;100.00;97699.25;5090721;28;20451;-76
2022/10/02 03:13:15;;;;;;;14.15;3.25;;;11.90;99.90;;;11.01;100.00;97701.91;5091535;28;20448;-75
2022/10/02 03:16:00;;;;;;;22.85;3.95;;;11.90;99.90;;;11.05;100.00;97705.66;5091688;28;20493;-76
2022/10/02 03:18:55;;;;;;;15.10;3.63;;;12.00;99.90;;;11.18;100.00;97702.66;5091792;28;20512;-76
2022/10/02 03:21:29;;;;;;;14.63;2.97;;;12.10;99.90;;;11.12;100.00;97689.59;5091824;28;20844;-76
2022/10/02 03:24:03;;;;;;;12.38;3.05;;;12.00;99.90;;;11.12;100.00;97694.91;5091258;28;20472;-76
2022/10/02 03:26:37;;;;;;;14.68;3.30;;;12.00;99.90;;;11.09;100.00;97693.53;5091627;28;20410;-76
2022/10/02 03:29:11;;;;;;;8.45;2.88;;;12.00;99.90;;;11.09;100.00;97692.72;5091555;28;20455;-75
2022/10/02 03:31:40;;;;;;;11.95;3.35;;;12.00;99.90;;;11.07;100.00;97692.97;5091649;28;20878;-76
2022/10/02 03:34:07;;;;;;;16.58;3.47;;;12.00;99.90;;;11.06;100.00;97688.72;5090997;28;20395;-76
2022/10/02 03:36:33;;;;;;;18.33;3.90;;;12.00;99.90;;;11.03;100.00;97691.88;5091299;28;20409;-75
2022/10/02 03:39:02;;;;;;;12.70;3.20;;;12.00;99.90;;;11.04;100.00;97692.66;5091509;28;20470;-76
2022/10/02 03:41:28;;;;;;;12.55;3.53;;;12.00;99.90;;;11.05;100.00;97694.28;5091341;28;20787;-75
2022/10/02 03:43:54;;;;;;;15.07;3.72;;;11.90;99.90;;;11.04;100.00;97690.03;5090833;28;20423;-75
2022/10/02 03:46:20;;;;;;;13.43;4.00;;;12.00;99.90;;;11.03;100.00;97689.22;5091160;28;20425;-75
2022/10/02 03:48:47;;;;;;;15.60;3.92;;;11.90;99.90;;;11.01;100.00;97678.06;5091221;28;20402;-75
2022/10/02 03:51:13;;;;;;;19.52;4.32;;;11.90;99.90;;;11.00;100.00;97673.81;5091212;28;20902;-75
2022/10/02 03:53:41;;;;;;;15.13;3.70;;;11.90;99.90;;;11.06;100.00;97677.31;5090765;28;20406;-75
2022/10/02 03:56:13;;;;;;;11.60;3.38;;;12.00;99.90;;;11.07;100.00;97682.38;5091127;28;20532;-75
2022/10/02 03:58:45;;;;;;;13.73;3.60;;;12.00;99.90;;;11.04;100.00;97682.88;5091088;28;20398;-74
2022/10/02 04:01:17;;;;;;;14.80;3.72;;;12.00;99.90;;;11.04;100.00;97684.72;5091080;28;20771;-75
2022/10/02 04:03:52;;;;;;;18.93;3.83;;;11.90;99.90;;;11.01;100.00;97679.91;5090358;28;20414;-75
2022/10/02 04:06:24;;;;;;;10.52;3.17;;;11.90;99.90;;;11.01;100.00;97683.34;5090674;28;20802;-76
2022/10/02 04:08:55;;;;;;;13.80;3.72;;;11.90;99.90;;;11.00;100.00;97681.75;5090855;28;20479;-75
2022/10/02 04:11:30;;;;;;;14.02;3.35;;;11.90;99.90;;;11.02;100.00;97684.16;5090910;28;20398;-75
2022/10/02 04:14:05;;;;;;;16.52;3.80;;;11.90;99.90;;;11.02;100.00;97692.91;5090351;28;20475;-75
2022/10/02 04:16:37;;;;;;;10.77;3.10;;;11.90;99.90;;;11.03;100.00;97683.91;5090693;28;20417;-75
2022/10/02 04:19:11;;;;;;;8.50;2.83;;;11.90;99.90;;;11.03;100.00;97685.75;5090798;28;20390;-75
2022/10/02 04:21:44;;;;;;;14.80;3.55;;;11.90;99.90;;;11.04;100.00;97687.38;5090766;28;20883;-74
2022/10/02 04:24:20;;;;;;;16.10;3.80;;;12.00;99.90;;;11.02;100.00;97692.91;5090216;28;20929;-76
2022/10/02 04:26:58;;;;;;;18.15;3.67;;;11.90;99.90;;;11.01;100.00;97690.50;5090557;28;20426;-76
2022/10/02 04:29:30;;;;;;;18.80;3.57;;;11.90;99.90;;;10.97;100.00;97692.06;5090690;28;20401;-75
2022/10/02 04:32:09;;;;;;;14.18;3.60;;;11.90;99.90;;;11.01;100.00;97693.16;5090608;28;20427;-76
2022/10/02 04:34:37;;;;;;;19.15;4.30;;;11.90;99.90;;;11.00;100.00;97695.00;5089899;28;20503;-75
2022/10/02 04:37:38;;;;;;;13.82;3.38;;;11.90;99.90;;;11.00;100.00;97691.53;5090480;28;20882;-75
2022/10/02 04:40:27;;;;;;;14.27;3.30;;;11.90;99.90;;;11.02;100.00;97687.63;5083439;28;20414;-75
2022/10/02 04:43:21;;;;;;;16.10;3.90;;;11.90;99.90;;;11.00;100.00;97695.00;5089832;28;20390;-75
2022/10/02 04:46:02;;;;;;;19.73;3.60;;;11.90;99.90;;;11.00;100.00;97689.69;5092853;28;20437;-75
2022/10/02 04:49:00;;;;;;;12.65;3.50;;;11.90;99.90;;;11.02;100.00;97692.09;5097146;28;20710;-75
2022/10/02 04:51:51;;;;;;;14.60;3.80;;;11.90;99.90;;;11.01;100.00;97688.66;5097118;28;21000;-75
2022/10/02 04:54:58;;;;;;;18.50;3.70;;;11.90;99.90;;;10.99;100.00;97688.09;5095354;28;20406;-75
2022/10/02 04:57:47;;;;;;;10.38;3.20;;;11.90;99.90;;;10.99;100.00;97689.94;5097028;28;20408;-75
2022/10/02 05:00:17;;;;;;;17.65;3.90;;;11.90;99.90;;;11.00;100.00;97692.34;5097059;28;20469;-75
2022/10/02 05:03:12;;;;;;;12.90;3.30;;;11.90;99.90;;;11.00;100.00;97689.69;5096869;28;20715;-74
2022/10/02 05:06:19;;;;;;;12.07;3.40;;;11.90;99.90;;;11.00;100.00;97680.94;5096796;28;20840;-74
2022/10/02 05:09:13;;;;;;;12.68;3.25;;;11.90;99.90;;;11.00;100.00;97684.41;5091216;28;20402;-76
2022/10/02 05:12:20;;;;;;;17.48;3.40;;;11.90;99.90;;;10.99;100.00;97677.50;5097413;28;20444;-84
2022/10/02 05:15:13;;;;;;;15.13;3.35;;;11.90;99.90;;;10.98;100.00;97681.19;5094347;28;20426;-75
2022/10/02 05:17:56;;;;;;;10.73;3.03;;;11.90;99.90;;;10.98;100.00;97675.88;5096161;28;20401;-82
2022/10/02 05:20:47;;;;;;;14.15;3.55;;;11.90;99.90;;;10.97;100.00;97674.31;5097928;28;20716;-79
2022/10/02 05:23:39;;;;;;;15.63;4.25;;;11.90;99.90;;;10.94;100.00;97674.00;5097129;28;20398;-79
2022/10/02 05:26:32;;;;;;;10.65;3.40;;;11.90;99.90;;;10.92;100.00;97676.06;5097575;28;20412;-82
2022/10/02 05:29:24;;;;;;;11.13;2.97;;;11.80;99.90;;;10.91;100.00;97677.91;5093768;28;20406;-80
2022/10/02 05:32:15;;;;;;;13.48;3.38;;;11.80;99.90;;;10.90;100.00;97673.66;5080625;28;20773;-81
2022/10/02 05:35:05;;;;;;;11.60;3.00;;;11.80;99.90;;;10.91;100.00;97691.16;5087490;28;20919;-80
2022/10/02 05:37:51;;;;;;;22.52;4.22;;;11.80;99.90;;;10.90;100.00;97688.78;5086527;28;20407;-77
2022/10/02 05:40:23;;;;;;;18.95;4.03;;;11.80;99.90;;;10.88;100.00;97686.38;5092262;28;20391;-82
2022/10/02 05:43:00;;;;;;;11.90;3.53;;;11.80;99.90;;;10.87;100.00;97692.72;5095222;28;20475;-81
2022/10/02 05:45:35;;;;;;;13.10;3.50;;;11.80;99.90;;;10.88;100.00;97689.03;5085522;28;20395;-80
2022/10/02 05:48:11;;;;;;;10.75;3.20;;;11.80;99.90;;;10.89;100.00;97689.81;5088936;28;20410;-79
2022/10/02 05:50:37;;;;;;;13.85;3.60;;;11.80;99.90;;;10.89;100.00;97681.88;5082626;28;21106;-80
2022/10/02 05:53:10;;;;;;;10.65;3.10;;;11.80;99.90;;;10.91;100.00;97682.41;5079790;28;20407;-80
2022/10/02 05:55:45;;;;;;;7.70;2.70;;;11.80;99.90;;;10.94;100.00;97684.59;5088562;28;20418;-85
2022/10/02 05:58:19;;;;;;;11.63;3.03;;;11.80;99.90;;;10.97;100.00;97697.34;5091972;28;20420;-85
2022/10/02 06:00:51;;;;;;;12.02;3.63;;;11.90;99.90;;;10.96;100.00;97693.09;5093429;28;20409;-89
2022/10/02 06:03:24;;;;;;;12.80;3.50;;;11.90;99.90;;;10.96;100.00;97704.50;5092582;28;20401;-83
2022/10/02 06:05:57;;;;;;;12.55;3.42;;;11.90;99.90;;;10.97;100.00;97705.28;5092702;28;20922;-81
2022/10/02 06:08:32;;;;;;;9.63;3.40;;;11.90;99.90;;;10.96;100.00;97701.03;5092242;28;20402;-79
2022/10/02 06:11:06;;;;;;;8.60;3.13;;;11.90;99.90;;;10.98;100.00;97707.69;5092585;28;20781;-84
2022/10/02 06:13:42;;;;;;;15.02;3.95;;;11.90;99.90;;;10.97;100.00;97705.28;5092124;28;20838;-84
2022/10/02 06:16:18;;;;;;;14.75;3.85;;;11.90;99.90;;;10.97;100.00;97710.59;5090416;28;20449;-84
2022/10/02 06:18:48;;;;;;;18.45;4.07;;;11.90;99.90;;;10.98;100.00;97712.97;5087304;28;20409;-83
2022/10/02 06:21:25;;;;;;;16.67;4.20;;;11.90;99.90;;;10.98;100.00;97704.22;5084975;28;20434;-84
2022/10/02 06:23:57;;;;;;;12.93;3.72;;;11.90;99.90;;;11.00;100.00;97697.66;5072412;28;20391;-84
2022/10/02 06:26:31;;;;;;;16.33;4.22;;;11.90;99.90;;;11.00;100.00;97702.13;5072752;28;20400;-84
2022/10/02 06:29:04;;;;;;;14.50;4.22;;;11.90;99.90;;;11.03;100.00;97691.88;5072800;28;20731;-84
2022/10/02 06:31:46;;;;;;;23.80;4.90;;;11.90;99.90;;;11.01;100.00;97685.19;5072761;28;20844;-84
2022/10/02 06:34:13;;;;;;;19.57;4.33;;;11.90;99.90;;;11.03;100.00;97683.91;5072190;28;20395;-82
2022/10/02 06:36:57;;;;;;;14.90;4.15;;;11.90;99.90;;;11.03;100.00;97677.81;5072526;28;20420;-82
2022/10/02 06:39:46;;;;;;;20.65;4.85;;;12.00;99.90;;;11.05;100.00;97665.13;5072555;28;20427;-81
2022/10/02 06:42:31;;;;;;;18.60;4.60;;;12.00;99.90;;;11.04;100.00;97653.75;5072583;28;20798;-81
2022/10/02 06:45:09;;;;;;;14.65;4.20;;;12.00;99.90;;;11.07;100.00;97652.41;5078525;28;20487;-81
2022/10/02 06:47:56;;;;;;;27.33;5.00;;;12.00;99.90;;;11.08;100.00;97651.38;5081512;28;20946;-82
2022/10/02 06:50:41;;;;;;;12.10;4.40;;;12.00;99.90;;;11.12;100.00;97640.06;5082301;28;20407;-81
2022/10/02 06:53:48;;;;;;;17.83;4.17;;;12.00;99.90;;;11.14;100.00;97640.59;5083413;28;20412;-83
2022/10/02 06:56:43;;;;;;;13.50;4.15;;;12.00;99.90;;;11.14;100.00;97653.03;5080119;28;20569;-82
2022/10/02 06:59:25;;;;;;;10.93;3.90;;;12.00;99.90;;;11.13;100.00;97660.19;5076524;28;20806;-82
2022/10/02 07:02:00;;;;;;;12.82;3.83;;;12.00;99.90;;;11.13;100.00;97654.88;5079359;28;20405;-82
2022/10/02 07:04:50;;;;;;;10.13;3.80;;;12.10;99.90;;;11.13;100.00;97662.81;5084468;28;20402;-82
2022/10/02 07:07:35;;;;;;;16.50;4.20;;;12.10;99.90;;;11.12;100.00;97658.59;5081480;28;20911;-80
2022/10/02 07:10:20;;;;;;;11.48;4.18;;;12.10;99.90;;;11.13;100.00;97656.72;5075394;28;20396;-80
2022/10/02 07:13:11;;;;;;;16.23;4.10;;;12.10;99.90;;;11.13;100.00;97649.59;5077698;28;20412;-79
2022/10/02 07:16:16;;;;;;;15.30;4.38;;;12.00;99.90;;;11.13;100.00;97643.47;5086893;28;20413;-76
2022/10/02 07:19:09;;;;;;;12.50;4.20;;;12.00;99.90;;;11.13;100.00;97632.88;5079964;28;20911;-76
2022/10/02 07:21:49;;;;;;;11.15;3.70;;;12.10;99.90;;;11.13;100.00;97625.72;5089864;28;20394;-76
2022/10/02 07:24:34;;;;;;;13.63;3.58;;;12.10;99.90;;;11.17;100.00;97624.22;5089199;28;20815;-79
2022/10/02 07:27:10;;;;;;;15.82;4.22;;;12.10;99.90;;;11.21;100.00;97621.84;5074600;28;20486;-78
2022/10/02 07:29:49;;;;;;;9.98;3.20;;;12.10;99.90;;;11.24;100.00;97624.81;5077098;28;20523;-78
2022/10/02 07:32:48;;;;;;;13.32;3.53;;;12.10;99.90;;;11.25;100.00;97615.81;5084454;28;20429;-78
2022/10/02 07:35:45;;;;;;;16.90;3.88;;;12.20;99.90;;;11.24;100.00;97613.41;5085982;28;20414;-78
2022/10/02 07:38:55;;;;;;;12.40;3.45;;;12.20;99.90;;;11.27;100.00;97604.97;5086122;28;20409;-78
2022/10/02 07:42:10;;;;;;;14.02;3.40;;;12.20;99.90;;;11.28;100.00;97617.16;5087960;28;20447;-78
2022/10/02 07:45:18;;;;;;;8.77;3.47;;;12.20;99.90;;;11.30;100.00;97619.56;5075965;28;20415;-78
2022/10/02 07:48:06;;;;;;;13.23;3.88;;;12.20;99.90;;;11.31;100.00;97623.81;5088166;28;20444;-79
2022/10/02 07:50:48;;;;;;;10.25;3.40;;;12.20;99.90;;;11.34;100.00;97620.66;5085875;28;20483;-79
2022/10/02 07:53:24;;;;;;;11.50;3.47;;;12.20;99.90;;;11.34;100.00;97613.53;5083168;28;20410;-79
2022/10/02 07:55:54;;;;;;;12.43;4.28;;;12.20;99.90;;;11.36;100.00;97629.16;5087014;28;20446;-79
2022/10/02 07:58:30;;;;;;;12.95;4.82;;;12.20;99.90;;;11.36;100.00;97626.50;5087943;28;20518;-76
2022/10/02 08:01:01;;;;;;;20.58;5.20;;;12.30;99.90;;;11.37;100.00;97612.19;5090677;28;20440;-79
2022/10/02 08:03:33;;;;;;;21.15;5.93;;;12.20;99.90;;;11.38;100.00;97613.81;5087157;28;20801;-79
2022/10/02 08:06:02;;;;;;;18.30;5.77;;;12.20;99.90;;;11.38;100.00;97619.09;5077759;28;20402;-79
2022/10/02 08:08:39;;;;;;;21.97;6.20;;;12.30;99.90;;;11.38;100.00;97622.56;5080339;28;20430;-79
2022/10/02 08:11:12;;;;;;;19.02;5.60;;;12.30;99.90;;;11.40;100.00;97622.31;5088479;28;20428;-79
2022/10/02 08:13:44;;;;;;;19.75;6.05;;;12.30;99.90;;;11.41;100.00;97630.03;5087262;28;20865;-79
2022/10/02 08:16:13;;;;;;;22.35;7.43;;;12.30;99.90;;;11.46;100.00;97624.75;5075779;28;20498;-79
2022/10/02 08:18:46;;;;;;;21.38;6.40;;;12.30;99.90;;;11.53;100.00;97630.66;5087957;28;20965;-79
2022/10/02 08:21:18;;;;;;;16.80;6.43;;;12.40;99.90;;;11.57;100.00;97631.78;5086429;28;20390;-79
2022/10/02 08:23:51;;;;;;;18.45;7.00;;;12.40;99.90;;;11.58;100.00;97630.69;5081943;28;20405;-80
2022/10/02 08:26:23;;;;;;;27.15;7.25;;;12.50;99.90;;;11.60;100.00;97611.91;5086381;28;20528;-81
2022/10/02 08:29:00;;;;;;;22.63;6.90;;;12.50;99.90;;;11.65;100.00;97617.25;5097307;28;20767;-81
2022/10/02 08:31:26;;;;;;;19.83;7.45;;;12.50;99.90;;;11.72;100.00;97609.91;5088774;28;20435;-81
2022/10/02 08:33:52;;;;;;;14.37;6.00;;;12.60;99.90;;;11.81;100.00;97610.25;5078698;28;20415;-82
2022/10/02 08:36:52;;;;;;;23.40;7.20;;;12.60;99.90;;;11.91;100.00;97616.44;5085584;28;20414;-83
2022/10/02 08:39:51;;;;;;;17.20;5.53;;;12.70;99.90;;;11.99;100.00;97599.25;5078151;28;20880;-84
2022/10/02 08:43:07;;;;;;;18.35;4.75;;;12.80;99.90;;;12.11;100.00;97599.06;5080034;28;20420;-83
2022/10/02 08:46:06;;;;;;;12.75;4.32;;;12.90;99.90;;;12.23;100.00;97599.69;5078882;28;20418;-83
2022/10/02 08:49:32;;;;;;;18.63;4.40;;;13.00;99.90;;;12.27;100.00;97580.31;5086069;28;20398;-84
2022/10/02 08:52:49;;;;;;;9.60;3.50;;;13.10;99.90;;;12.29;100.00;97583.53;5086980;28;20394;-83
2022/10/02 08:56:02;;;;;;;13.02;4.20;;;13.10;99.90;;;12.33;100.00;97583.81;5065445;28;20418;-83
2022/10/02 08:59:07;;;;;;;15.20;4.20;;;13.20;99.90;;;12.45;100.00;97581.75;5082888;28;20425;-83
2022/10/02 09:02:11;;;;;;;18.17;5.13;;;13.30;99.90;;;12.56;100.00;97579.94;5050327;28;20765;-82
2022/10/02 09:08:56;;;;;;;17.40;5.40;;;13.50;99.90;;;12.63;100.00;97567.25;5041349;28;20487;-75
2022/10/02 09:12:34;;;;;;;18.77;5.38;;;13.40;99.90;;;12.65;100.00;97565.13;5037157;28;20407;-75
2022/10/02 09:15:14;;;;;;;15.70;5.22;;;13.50;99.90;;;12.60;100.00;97559.78;5047430;28;20413;-75
2022/10/02 09:18:13;;;;;;;17.73;5.20;;;13.40;99.90;;;12.56;100.00;97561.34;5030106;28;20399;-75
2022/10/02 09:21:13;;;;;;;10.55;4.60;;;13.40;99.90;;;12.56;100.00;97567.47;5046066;28;20509;-75
2022/10/02 09:24:31;;;;;;;14.38;5.22;;;13.40;99.90;;;12.56;100.00;97558.69;5024735;28;20421;-75
2022/10/02 09:27:49;;;;;;;15.05;5.32;;;13.40;99.90;;;12.64;100.00;97561.66;5013905;28;20423;-75
2022/10/02 09:30:31;;;;;;;20.35;5.70;;;13.40;99.90;;;12.70;100.00;97563.31;5041286;28;20393;-77
2022/10/02 09:33:53;;;;;;;16.50;5.50;;;13.50;99.90;;;12.85;100.00;97556.44;5021280;28;20423;-77
2022/10/02 09:37:23;;;;;;;15.93;4.80;;;13.60;99.90;;;12.98;100.00;97553.28;5012606;28;20458;-77
2022/10/02 09:40:44;;;;;;;12.95;4.45;;;13.80;99.90;;;13.05;100.00;97546.66;5036488;28;20825;-79
2022/10/02 09:44:05;;;;;;;12.07;4.40;;;13.90;99.90;;;13.08;100.00;97550.66;4998899;28;20450;-78
2022/10/02 09:47:02;;;;;;;12.38;4.20;;;13.90;99.90;;;13.09;100.00;97552.22;5042406;28;20410;-77
2022/10/02 09:50:29;;;;;;;10.35;3.95;;;13.90;99.90;;;13.07;100.00;97547.19;5027537;28;20457;-78
2022/10/02 09:53:43;;;;;;;9.70;4.07;;;13.90;99.90;;;13.08;100.00;97562.06;5010736;28;20418;-78
2022/10/02 09:56:50;;;;;;;17.65;4.72;;;13.90;99.90;;;13.09;100.00;97563.66;5034604;28;20420;-78
2022/10/02 09:59:54;;;;;;;14.77;4.60;;;13.90;99.90;;;13.01;100.00;97576.66;5044346;28;20493;-78
2022/10/02 10:03:16;;;;;;;16.15;4.00;;;13.90;99.90;;;12.95;100.00;97577.72;5034361;28;20414;-76
2022/10/02 10:06:34;;;;;;;16.75;4.50;;;13.80;99.90;;;12.87;100.00;97583.53;5018304;28;20394;-76
2022/10/02 10:09:39;;;;;;;16.65;4.47;;;13.70;99.90;;;12.81;100.00;97598.66;5023386;28;20408;-76
2022/10/02 10:13:02;;;;;;;14.30;4.68;;;13.70;99.90;;;12.75;100.00;97591.72;5023248;28;20943;-76
2022/10/02 10:16:21;;;;;;;13.15;4.75;;;13.60;99.90;;;12.74;100.00;97577.66;4975119;28;20947;-76
2022/10/02 10:19:32;;;;;;;13.65;5.20;;;13.60;99.90;;;12.75;100.00;97587.22;5000234;28;20411;-76
2022/10/02 10:22:48;;;;;;;20.40;6.78;;;13.60;99.90;;;12.73;100.00;97599.16;5012200;28;20746;-76
2022/10/02 10:26:03;;;;;;;18.75;7.57;;;13.60;99.90;;;12.72;100.00;97600.19;5044251;28;20422;-76
2022/10/02 10:29:07;;;;;;;39.47;15.47;;;13.60;99.90;;;12.66;100.00;97604.69;5019333;28;20504;-76
2022/10/02 10:32:10;;;;;;;12.85;5.53;;;13.50;99.90;;;12.67;100.00;97573.63;5022900;28;20757;-76
2022/10/02 10:35:19;;;;;;;32.67;14.75;;;13.50;99.90;;;12.72;100.00;97577.09;5034665;28;20836;-76
2022/10/02 10:38:32;;;;;;;46.25;19.45;;;13.50;99.90;;;12.75;100.00;97578.44;5024924;28;20502;-76
2022/10/02 10:41:48;;;;;;;18.33;6.65;;;13.60;99.90;;;12.76;100.00;97585.34;5029290;28;21176;-76
2022/10/02 10:45:21;;;;;;;11.07;3.85;;;13.60;99.90;;;12.75;100.00;97595.19;5025941;28;20886;-75
2022/10/02 10:48:27;;;;;;;11.55;4.53;;;13.60;99.90;;;12.77;100.00;97595.72;4948701;28;20415;-76
2022/10/02 10:51:13;;;;;;;22.23;6.75;;;13.60;99.90;;;12.74;100.00;97606.06;4949422;28;20448;-74
2022/10/02 10:54:15;;;;;;;12.18;3.90;;;13.60;99.90;;;12.73;100.00;97599.16;5042659;28;20467;-73
2022/10/02 10:56:45;;;;;;;9.00;2.85;;;13.60;99.90;;;12.71;100.00;97599.41;5051628;28;20460;-75
2022/10/02 11:00:02;;;;;;;6.65;2.60;;;13.60;99.90;;;12.69;100.00;97598.88;5051693;28;20493;-75
2022/10/02 11:03:22;;;;;;;7.32;2.88;;;13.50;99.90;;;12.64;100.00;97598.84;5006179;28;20911;-74
2022/10/02 11:06:29;;;;;;;6.47;2.40;;;13.50;99.90;;;12.65;100.00;97610.25;5051286;28;20405;-74
2022/10/02 11:09:33;;;;;;;5.23;2.73;;;13.50;99.90;;;12.65;100.00;97605.75;5026787;28;20399;-74
2022/10/02 11:12:40;;;;;;;7.60;2.50;;;13.50;99.90;;;12.65;100.00;97621.69;5028573;28;20395;-74
2022/10/02 11:15:55;;;;;;;6.25;2.80;;;13.50;99.90;;;12.64;100.00;97622.75;5026054;28;20482;-76
2022/10/02 11:18:38;;;;;;;5.10;2.40;;;13.50;99.90;;;12.65;100.00;97626.19;4971332;28;20419;-74
2022/10/02 11:21:38;;;;;;;5.27;2.50;;;13.50;99.90;;;12.65;100.00;97627.00;5031710;28;20946;-74
2022/10/02 11:24:34;;;;;;;4.80;2.10;;;13.50;99.90;;;12.67;100.00;97616.13;5050883;28;20397;-75